Time;durP1;ratioP1;P1;durP2;ratioP2;P2;SDS_P1;SDS_P2;PMS_P1;PMS_P2;Temp;Humidity;BMP_temperature;BMP_pressure;BME280_temperature;BME280_humidity;BME280_pressure;Samples;Min_cycle;Max_cycle;Signal;HPM_P1;HPM_P2
2022/06/19 00:02:24;;;;;;;14.88;3.10;;;15.20;99.90;;;;;;4981757;28;20395;-86
2022/06/19 00:04:51;;;;;;;15.45;2.85;;;15.30;99.90;;;;;;4997224;28;20046;-87
2022/06/19 00:07:17;;;;;;;17.38;3.17;;;15.10;99.90;;;;;;4980659;28;20058;-86
2022/06/19 00:09:43;;;;;;;17.50;2.75;;;14.90;99.90;;;;;;5013503;28;20054;-87
2022/06/19 00:12:08;;;;;;;12.93;2.72;;;15.00;99.90;;;;;;4981147;28;20046;-86
2022/06/19 00:14:34;;;;;;;7.80;2.30;;;15.10;99.90;;;;;;5014471;28;20045;-86
2022/06/19 00:17:01;;;;;;;12.52;2.65;;;14.90;99.90;;;;;;5012921;28;20042;-86
2022/06/19 00:19:27;;;;;;;12.45;2.72;;;14.90;99.90;;;;;;4964093;28;20052;-87
2022/06/19 00:21:52;;;;;;;11.68;2.70;;;15.00;99.90;;;;;;5013421;28;20058;-87
2022/06/19 00:24:18;;;;;;;13.80;2.75;;;15.00;99.90;;;;;;4996746;28;20049;-85
2022/06/19 00:26:43;;;;;;;10.57;2.15;;;14.90;99.90;;;;;;5013989;28;20104;-86
2022/06/19 00:29:09;;;;;;;7.57;2.00;;;14.90;99.90;;;;;;5013788;28;20073;-86
2022/06/19 00:31:35;;;;;;;10.68;2.13;;;14.80;99.90;;;;;;5012470;28;20440;-86
2022/06/19 00:34:01;;;;;;;10.02;2.40;;;14.90;99.90;;;;;;4980320;28;20100;-87
2022/06/19 00:36:27;;;;;;;10.95;3.70;;;14.80;99.90;;;;;;4964508;28;20486;-87
2022/06/19 00:38:54;;;;;;;9.55;1.90;;;14.80;99.90;;;;;;4980182;28;20050;-86
2022/06/19 00:41:20;;;;;;;11.48;2.20;;;14.80;99.90;;;;;;5012287;28;20057;-87
2022/06/19 00:44:12;;;;;;;7.90;1.95;;;14.90;99.90;;;;;;4980747;28;20374;-86
2022/06/19 00:46:47;;;;;;;7.97;1.90;;;14.60;99.90;;;;;;4993886;28;20437;-86
2022/06/19 00:49:31;;;;;;;17.73;3.28;;;14.80;99.90;;;;;;5016313;28;20544;-87
2022/06/19 00:52:17;;;;;;;10.60;1.73;;;14.80;99.90;;;;;;5018480;28;20057;-88
2022/06/19 00:54:47;;;;;;;10.98;2.22;;;14.80;99.90;;;;;;5016305;28;20104;-86
2022/06/19 00:57:13;;;;;;;9.43;1.88;;;14.90;99.90;;;;;;4967288;28;20054;-87
2022/06/19 00:59:39;;;;;;;14.10;2.65;;;14.90;99.90;;;;;;5016193;28;20041;-87
2022/06/19 01:02:05;;;;;;;14.95;2.72;;;14.90;99.90;;;;;;4968440;28;20119;-88
2022/06/19 01:04:37;;;;;;;16.40;2.85;;;14.90;99.90;;;;;;5016383;28;20053;-86
2022/06/19 01:07:05;;;;;;;15.35;2.83;;;14.90;99.90;;;;;;4968010;28;20068;-86
2022/06/19 01:09:31;;;;;;;12.98;2.30;;;14.90;99.90;;;;;;5016164;28;20060;-86
2022/06/19 01:11:57;;;;;;;12.60;2.35;;;14.80;99.90;;;;;;5015476;28;20049;-86
2022/06/19 01:14:23;;;;;;;10.75;2.30;;;14.90;99.90;;;;;;4983235;28;20057;-87
2022/06/19 01:16:49;;;;;;;8.27;2.38;;;15.00;99.90;;;;;;4983189;28;20042;-87
2022/06/19 01:19:38;;;;;;;7.85;1.55;;;15.00;99.90;;;;;;5015601;28;20041;-87
2022/06/19 01:22:10;;;;;;;12.23;2.28;;;15.00;99.90;;;;;;4986085;28;20073;-86
2022/06/19 01:25:14;;;;;;;11.93;2.33;;;15.00;99.90;;;;;;4999060;28;20056;-87
2022/06/19 01:30:29;;;;;;;7.68;1.67;;;14.90;99.90;;;;;;5018708;28;20135;-87
2022/06/19 01:32:56;;;;;;;9.80;2.05;;;14.70;99.90;;;;;;5015602;28;20050;-87
2022/06/19 01:35:22;;;;;;;10.63;2.45;;;14.70;99.90;;;;;;4998961;28;20157;-87
2022/06/19 01:37:47;;;;;;;11.18;2.33;;;14.70;99.90;;;;;;4982681;28;20148;-86
2022/06/19 01:40:24;;;;;;;12.27;2.20;;;14.70;99.90;;;;;;4966545;28;20042;-87
2022/06/19 01:42:49;;;;;;;10.70;2.08;;;14.60;99.90;;;;;;5000204;28;20089;-87
2022/06/19 01:45:15;;;;;;;9.57;2.13;;;14.70;99.90;;;;;;4966650;28;20092;-88
2022/06/19 01:47:41;;;;;;;10.88;2.20;;;14.70;99.90;;;;;;4983427;28;20207;-86
2022/06/19 01:50:10;;;;;;;9.95;2.33;;;14.90;99.90;;;;;;4966470;28;20073;-87
2022/06/19 01:52:36;;;;;;;11.18;1.85;;;15.00;99.90;;;;;;4982479;28;20041;-86
2022/06/19 01:55:03;;;;;;;12.20;2.28;;;15.10;99.90;;;;;;4966450;28;20033;-87
2022/06/19 01:57:30;;;;;;;11.07;1.77;;;14.90;99.90;;;;;;5015732;28;20529;-87
2022/06/19 01:59:56;;;;;;;10.75;1.98;;;14.90;99.90;;;;;;5014617;28;20425;-87
2022/06/19 02:02:23;;;;;;;7.72;2.45;;;15.10;99.90;;;;;;4982267;28;20046;-87
2022/06/19 02:04:48;;;;;;;15.88;2.90;;;15.10;99.90;;;;;;4982606;28;20155;-87
2022/06/19 02:07:20;;;;;;;8.70;1.70;;;15.10;99.90;;;;;;4982141;28;20097;-88
2022/06/19 02:09:46;;;;;;;9.80;2.08;;;15.00;99.90;;;;;;4966039;28;20046;-87
2022/06/19 02:12:12;;;;;;;10.55;2.10;;;15.00;99.90;;;;;;5014733;28;20053;-86
2022/06/19 02:14:37;;;;;;;11.13;2.20;;;15.10;99.90;;;;;;4981954;28;20129;-86
2022/06/19 02:17:17;;;;;;;8.27;1.90;;;14.90;99.90;;;;;;4982163;28;20512;-86
2022/06/19 02:19:42;;;;;;;11.00;3.28;;;15.00;99.90;;;;;;4966903;28;20049;-87
2022/06/19 02:22:12;;;;;;;11.70;2.30;;;14.90;99.90;;;;;;4981957;28;20053;-87
2022/06/19 02:24:39;;;;;;;10.77;2.10;;;14.20;99.90;;;;;;4998070;28;20045;-86
2022/06/19 02:27:06;;;;;;;12.90;2.40;;;15.00;99.90;;;;;;4981856;28;20045;-87
2022/06/19 02:29:31;;;;;;;12.38;2.50;;;15.00;99.90;;;;;;5014423;28;20464;-85
2022/06/19 02:31:57;;;;;;;10.35;2.20;;;14.90;99.90;;;;;;4965833;28;20046;-87
2022/06/19 02:34:37;;;;;;;10.48;1.95;;;14.90;99.90;;;;;;4981670;28;20058;-87
2022/06/19 02:37:17;;;;;;;16.00;2.60;;;14.80;99.90;;;;;;4998570;28;20058;-86
2022/06/19 02:39:59;;;;;;;17.52;3.03;;;15.00;99.90;;;;;;5015766;28;20053;-86
2022/06/19 02:42:35;;;;;;;10.73;2.47;;;14.90;99.90;;;;;;4965895;28;20081;-86
2022/06/19 02:45:05;;;;;;;19.02;3.03;;;14.80;99.90;;;;;;4999187;28;20057;-85
2022/06/19 02:47:33;;;;;;;15.88;2.70;;;14.80;99.90;;;;;;5014739;28;20560;-86
2022/06/19 02:49:58;;;;;;;10.45;2.40;;;14.80;99.90;;;;;;4965354;28;20053;-86
2022/06/19 02:52:24;;;;;;;13.15;2.67;;;14.70;99.90;;;;;;5014153;28;20054;-86
2022/06/19 02:54:50;;;;;;;13.57;2.75;;;14.60;99.90;;;;;;4997270;28;20049;-87
2022/06/19 02:57:16;;;;;;;13.35;2.70;;;14.60;99.90;;;;;;4997501;28;20042;-86
2022/06/19 02:59:42;;;;;;;13.07;2.40;;;14.60;99.90;;;;;;5013914;28;20046;-87
2022/06/19 03:02:08;;;;;;;11.85;2.47;;;14.80;99.90;;;;;;5013820;28;20046;-87
2022/06/19 03:04:40;;;;;;;12.30;2.67;;;14.90;99.90;;;;;;5014004;28;20041;-87
2022/06/19 03:07:06;;;;;;;18.80;3.20;;;14.80;99.90;;;;;;5013974;28;20089;-86
2022/06/19 03:09:32;;;;;;;12.95;3.42;;;14.80;99.90;;;;;;5013569;28;20091;-87
2022/06/19 03:11:57;;;;;;;14.60;2.72;;;14.70;99.90;;;;;;5013268;28;20085;-86
2022/06/19 03:14:24;;;;;;;15.48;2.47;;;14.70;99.90;;;;;;5013812;28;20046;-86
2022/06/19 03:16:50;;;;;;;16.80;3.38;;;14.80;99.90;;;;;;5013622;28;20161;-86
2022/06/19 03:19:15;;;;;;;9.20;2.80;;;14.90;99.90;;;;;;5013430;28;20103;-86
2022/06/19 03:21:41;;;;;;;18.90;3.78;;;14.90;99.90;;;;;;4965353;28;20508;-87
2022/06/19 03:24:07;;;;;;;18.42;3.13;;;14.90;99.90;;;;;;4980744;28;20115;-86
2022/06/19 03:26:33;;;;;;;14.40;2.72;;;14.60;99.90;;;;;;4980658;28;20049;-87
2022/06/19 03:28:58;;;;;;;15.65;2.67;;;14.70;99.90;;;;;;4964891;28;20042;-87
2022/06/19 03:31:26;;;;;;;15.40;2.50;;;14.80;99.90;;;;;;4996487;28;20112;-86
2022/06/19 03:33:52;;;;;;;18.63;4.13;;;14.70;99.90;;;;;;5013438;28;20053;-86
2022/06/19 03:36:18;;;;;;;17.42;3.42;;;14.60;99.90;;;;;;4980825;28;20053;-87
2022/06/19 03:38:44;;;;;;;13.80;2.50;;;14.60;99.90;;;;;;5013402;28;20048;-86
2022/06/19 03:41:10;;;;;;;16.27;2.67;;;14.70;99.90;;;;;;5013506;28;20048;-86
2022/06/19 03:43:35;;;;;;;17.35;2.80;;;14.50;99.90;;;;;;5013847;28;20037;-85
2022/06/19 03:46:05;;;;;;;17.90;3.45;;;14.30;99.90;;;;;;4964489;28;20085;-85
2022/06/19 03:48:31;;;;;;;16.85;3.10;;;14.30;99.90;;;;;;5014092;28;20037;-85
2022/06/19 03:50:56;;;;;;;19.13;3.35;;;14.30;99.90;;;;;;4964428;28;20385;-86
2022/06/19 03:53:22;;;;;;;10.57;2.95;;;14.20;99.90;;;;;;4964347;28;20052;-87
2022/06/19 03:55:48;;;;;;;18.60;3.00;;;14.50;99.90;;;;;;5013323;28;20134;-86
2022/06/19 03:58:13;;;;;;;18.02;3.00;;;14.40;99.90;;;;;;4980205;28;20053;-85
2022/06/19 04:00:39;;;;;;;16.58;2.92;;;14.30;99.90;;;;;;4996648;28;20042;-87
2022/06/19 04:03:05;;;;;;;15.52;3.13;;;14.30;99.90;;;;;;4980457;28;20049;-87
2022/06/19 04:05:31;;;;;;;16.70;2.70;;;14.20;99.90;;;;;;4980926;28;20053;-87
2022/06/19 04:07:57;;;;;;;16.42;3.28;;;14.30;99.90;;;;;;4980720;28;20041;-89
2022/06/19 04:10:23;;;;;;;18.27;3.35;;;14.10;99.90;;;;;;5013067;28;20053;-87
2022/06/19 04:12:48;;;;;;;14.88;2.67;;;14.10;99.90;;;;;;4980723;28;20108;-87
2022/06/19 04:15:14;;;;;;;14.02;2.95;;;14.20;99.90;;;;;;5014126;28;20049;-87
2022/06/19 04:17:40;;;;;;;9.68;1.98;;;14.00;99.90;;;;;;5013403;28;20046;-88
2022/06/19 04:20:09;;;;;;;17.45;3.08;;;13.90;99.90;;;;;;5012516;28;20046;-87
2022/06/19 04:22:35;;;;;;;11.20;2.45;;;13.80;99.90;;;;;;4982659;28;20038;-87
2022/06/19 04:25:01;;;;;;;14.82;3.13;;;13.70;99.90;;;;;;5016870;28;20046;-87
2022/06/19 04:27:27;;;;;;;14.07;3.05;;;13.60;99.90;;;;;;5000544;28;20049;-88
2022/06/19 04:29:53;;;;;;;22.50;3.20;;;13.50;99.90;;;;;;5000219;28;20478;-87
2022/06/19 04:32:18;;;;;;;16.83;2.70;;;13.50;99.90;;;;;;4985311;28;20133;-87
2022/06/19 04:34:44;;;;;;;10.45;2.10;;;13.60;99.90;;;;;;5016724;28;20355;-87
2022/06/19 04:37:10;;;;;;;10.35;1.77;;;13.60;99.90;;;;;;5000314;28;20046;-86
2022/06/19 04:39:35;;;;;;;11.27;2.45;;;13.60;99.90;;;;;;5016475;28;20115;-87
2022/06/19 04:42:01;;;;;;;9.18;1.65;;;13.70;99.90;;;;;;5000341;28;20061;-87
2022/06/19 04:44:27;;;;;;;4.95;1.40;;;13.60;99.90;;;;;;4984570;28;20054;-88
2022/06/19 04:46:52;;;;;;;4.35;0.88;;;13.70;99.90;;;;;;4983708;28;20049;-89
2022/06/19 04:49:18;;;;;;;8.80;1.58;;;13.90;99.90;;;;;;4967970;28;20085;-86
2022/06/19 04:51:44;;;;;;;10.25;1.85;;;14.00;99.90;;;;;;4983919;28;20118;-87
2022/06/19 04:54:10;;;;;;;11.35;1.80;;;13.80;99.90;;;;;;5016107;28;20077;-87
2022/06/19 04:56:36;;;;;;;10.25;1.77;;;13.80;99.90;;;;;;4967260;28;20046;-87
2022/06/19 04:59:01;;;;;;;8.98;1.80;;;14.10;99.90;;;;;;5000658;28;20061;-88
2022/06/19 05:01:29;;;;;;;10.40;1.88;;;14.20;99.90;;;;;;5016042;28;20367;-86
2022/06/19 05:03:57;;;;;;;7.22;1.65;;;14.40;99.90;;;;;;4984005;28;20454;-87
2022/06/19 05:06:23;;;;;;;13.15;2.38;;;14.70;99.90;;;;;;4983745;28;20489;-87
2022/06/19 05:08:49;;;;;;;10.38;1.85;;;14.80;99.90;;;;;;5016030;28;20044;-87
2022/06/19 05:11:15;;;;;;;8.55;2.20;;;14.80;99.90;;;;;;5015879;28;20052;-88
2022/06/19 05:13:41;;;;;;;11.00;2.05;;;14.80;99.90;;;;;;5015699;28;20437;-87
2022/06/19 05:16:18;;;;;;;12.55;2.20;;;14.60;99.90;;;;;;5032117;28;20454;-85
2022/06/19 05:18:44;;;;;;;17.33;3.90;;;14.60;99.90;;;;;;4983934;28;20050;-86
2022/06/19 05:21:10;;;;;;;15.82;3.30;;;14.80;99.90;;;;;;4983230;28;20048;-86
2022/06/19 05:23:39;;;;;;;17.00;4.03;;;14.70;99.90;;;;;;5015920;28;20041;-87
2022/06/19 05:26:07;;;;;;;20.05;4.80;;;14.40;99.90;;;;;;4983983;28;20042;-86
2022/06/19 05:28:33;;;;;;;12.57;2.83;;;14.40;99.90;;;;;;4983165;28;20405;-85
2022/06/19 05:30:59;;;;;;;15.70;2.75;;;14.40;99.90;;;;;;4982455;28;20050;-87
2022/06/19 05:33:25;;;;;;;15.10;2.92;;;14.60;99.90;;;;;;4999140;28;20183;-87
2022/06/19 05:35:51;;;;;;;18.38;4.15;;;14.70;99.90;;;;;;4967516;28;20520;-87
2022/06/19 05:38:16;;;;;;;11.82;2.30;;;14.40;99.90;;;;;;5014787;28;20058;-87
2022/06/19 05:40:42;;;;;;;13.05;3.17;;;14.50;99.90;;;;;;5015010;28;20181;-86
2022/06/19 05:43:08;;;;;;;18.30;2.80;;;14.40;99.90;;;;;;4998810;28;20088;-87
2022/06/19 05:45:34;;;;;;;13.52;2.78;;;14.30;99.90;;;;;;5015185;28;20081;-87
2022/06/19 05:48:00;;;;;;;12.18;2.22;;;14.40;99.90;;;;;;4998541;28;20494;-87
2022/06/19 05:50:25;;;;;;;13.10;2.88;;;14.70;99.90;;;;;;5016039;28;20089;-86
2022/06/19 05:52:51;;;;;;;9.88;2.58;;;14.60;99.90;;;;;;4966807;28;20069;-87
2022/06/19 05:55:17;;;;;;;14.45;3.35;;;14.30;99.90;;;;;;4983112;28;20049;-87
2022/06/19 05:57:42;;;;;;;18.60;3.08;;;14.40;99.90;;;;;;4998400;28;20069;-87
2022/06/19 06:00:08;;;;;;;13.40;2.55;;;14.30;99.90;;;;;;4998553;28;20042;-87
2022/06/19 06:02:35;;;;;;;11.25;2.10;;;14.20;99.90;;;;;;4967122;28;20133;-86
2022/06/19 06:05:01;;;;;;;16.33;2.95;;;14.20;99.90;;;;;;5015150;28;20100;-87
2022/06/19 06:07:27;;;;;;;12.95;2.35;;;14.30;99.90;;;;;;4983156;28;20490;-87
2022/06/19 06:09:53;;;;;;;15.30;2.33;;;14.30;99.90;;;;;;4983218;28;20057;-86
2022/06/19 06:12:19;;;;;;;18.35;2.70;;;14.30;99.90;;;;;;5032657;28;20433;-85
2022/06/19 06:14:44;;;;;;;14.52;3.38;;;14.30;99.90;;;;;;4966324;28;20050;-86
2022/06/19 06:17:10;;;;;;;11.80;2.80;;;14.50;99.90;;;;;;4998918;28;20038;-88
2022/06/19 06:19:36;;;;;;;17.42;3.15;;;14.50;99.90;;;;;;4998048;28;20084;-87
2022/06/19 06:22:03;;;;;;;13.43;3.58;;;14.50;99.90;;;;;;4981886;28;20050;-86
2022/06/19 06:24:29;;;;;;;14.65;2.78;;;14.40;99.90;;;;;;4981872;28;20049;-86
2022/06/19 06:26:55;;;;;;;13.90;2.88;;;14.50;99.90;;;;;;5015373;28;20046;-87
2022/06/19 06:29:21;;;;;;;9.73;2.50;;;14.60;99.90;;;;;;4981941;28;20504;-87
2022/06/19 06:31:47;;;;;;;13.65;2.63;;;14.60;99.90;;;;;;4998557;28;20121;-85
2022/06/19 06:34:12;;;;;;;12.27;2.10;;;14.40;99.90;;;;;;5014718;28;20103;-87
2022/06/19 06:36:38;;;;;;;11.05;1.90;;;14.40;99.90;;;;;;5014567;28;20053;-87
2022/06/19 06:39:04;;;;;;;13.88;2.80;;;14.50;99.90;;;;;;4997747;28;20100;-86
2022/06/19 06:41:29;;;;;;;17.17;3.05;;;14.50;99.90;;;;;;5014378;28;20034;-86
2022/06/19 06:43:55;;;;;;;11.30;2.13;;;14.50;99.90;;;;;;4965742;28;20129;-86
2022/06/19 06:46:23;;;;;;;16.27;2.50;;;14.80;99.90;;;;;;4980685;28;20045;-86
2022/06/19 06:48:50;;;;;;;11.50;2.40;;;14.70;99.90;;;;;;4965374;28;20053;-86
2022/06/19 06:51:17;;;;;;;14.40;2.47;;;14.70;99.90;;;;;;5013864;28;20085;-88
2022/06/19 06:53:43;;;;;;;12.38;2.35;;;14.70;99.90;;;;;;5014176;28;20183;-87
2022/06/19 06:56:09;;;;;;;12.30;2.50;;;14.60;99.90;;;;;;4997564;28;20129;-87
2022/06/19 06:58:35;;;;;;;8.82;2.65;;;14.60;99.90;;;;;;4997737;28;20041;-87
2022/06/19 07:01:27;;;;;;;13.77;2.47;;;14.90;99.90;;;;;;4981879;28;20049;-87
2022/06/19 07:03:55;;;;;;;13.43;2.53;;;14.80;99.90;;;;;;4995260;28;20073;-86
2022/06/19 07:06:25;;;;;;;8.02;2.05;;;14.80;99.90;;;;;;4981602;28;20046;-87
2022/06/19 07:08:51;;;;;;;11.02;2.22;;;14.90;99.90;;;;;;4981957;28;20470;-86
2022/06/19 07:11:20;;;;;;;14.50;2.60;;;14.90;99.90;;;;;;4965534;28;20056;-87
2022/06/19 07:13:46;;;;;;;12.15;2.53;;;14.90;99.90;;;;;;5013940;28;20052;-87
2022/06/19 07:16:11;;;;;;;13.98;3.58;;;14.80;99.90;;;;;;5030756;28;20050;-87
2022/06/19 07:18:37;;;;;;;14.00;2.45;;;14.90;99.90;;;;;;4981487;28;20046;-86
2022/06/19 07:21:03;;;;;;;16.27;2.20;;;14.80;99.90;;;;;;5013306;28;20133;-87
2022/06/19 07:23:28;;;;;;;12.43;2.40;;;15.00;99.90;;;;;;5012997;28;20429;-87
2022/06/19 07:25:54;;;;;;;11.32;2.47;;;15.00;99.90;;;;;;5013400;28;20049;-87
2022/06/19 07:28:20;;;;;;;11.50;2.47;;;14.90;99.90;;;;;;4980716;28;20052;-86
2022/06/19 07:30:46;;;;;;;14.75;4.35;;;15.20;99.90;;;;;;5013245;28;20085;-88
2022/06/19 07:33:12;;;;;;;15.80;2.60;;;15.20;99.90;;;;;;4980749;28;20049;-86
2022/06/19 07:35:38;;;;;;;16.42;3.15;;;15.10;99.90;;;;;;5029831;28;20084;-87
2022/06/19 07:38:04;;;;;;;19.98;3.35;;;15.10;99.90;;;;;;4965301;28;20053;-86
2022/06/19 07:40:29;;;;;;;11.43;3.10;;;15.00;99.90;;;;;;4996930;28;20044;-87
2022/06/19 07:42:55;;;;;;;17.25;2.80;;;15.00;99.90;;;;;;5013790;28;20548;-86
2022/06/19 07:45:21;;;;;;;18.38;3.67;;;14.90;99.90;;;;;;4980950;28;20132;-87
2022/06/19 07:50:30;;;;;;;13.85;2.60;;;14.90;99.90;;;;;;5016465;28;20196;-87
2022/06/19 07:52:56;;;;;;;12.57;2.90;;;15.00;99.90;;;;;;4996732;28;20525;-87
2022/06/19 07:55:26;;;;;;;12.40;2.88;;;14.90;99.90;;;;;;5013945;28;20057;-86
2022/06/19 07:57:52;;;;;;;13.10;2.78;;;14.80;99.90;;;;;;5013132;28;20054;-87
2022/06/19 08:00:23;;;;;;;15.13;2.40;;;14.70;99.90;;;;;;5012836;28;20501;-85
2022/06/19 08:02:51;;;;;;;14.55;2.40;;;14.80;99.90;;;;;;5014788;28;20045;-88
2022/06/19 08:05:21;;;;;;;11.73;2.63;;;14.90;99.90;;;;;;4997302;28;20049;-85
2022/06/19 08:07:48;;;;;;;10.45;2.58;;;14.70;99.90;;;;;;5013430;28;20052;-87
2022/06/19 08:10:17;;;;;;;13.73;2.97;;;14.60;99.90;;;;;;5013148;28;20184;-87
2022/06/19 08:12:43;;;;;;;14.80;2.70;;;14.60;99.90;;;;;;5013540;28;20094;-87
2022/06/19 08:15:09;;;;;;;15.85;2.75;;;14.50;99.90;;;;;;5012796;28;20096;-86
2022/06/19 08:17:35;;;;;;;18.65;3.00;;;15.30;99.90;;;;;;5012851;28;20490;-88
2022/06/19 08:20:00;;;;;;;12.82;2.38;;;14.60;99.90;;;;;;4996378;28;20042;-87
2022/06/19 08:22:26;;;;;;;14.30;3.08;;;14.60;99.90;;;;;;4998770;28;20050;-87
2022/06/19 08:24:52;;;;;;;17.70;3.25;;;14.70;99.90;;;;;;4983068;28;20089;-87
2022/06/19 08:27:17;;;;;;;12.95;3.58;;;14.80;99.90;;;;;;4997672;28;20048;-85
2022/06/19 08:29:43;;;;;;;14.95;2.60;;;14.80;99.90;;;;;;5013102;28;20065;-86
2022/06/19 08:32:09;;;;;;;14.02;2.78;;;14.80;99.90;;;;;;4997744;28;20034;-86
2022/06/19 08:34:34;;;;;;;16.42;2.80;;;14.90;99.90;;;;;;5012071;28;20374;-87
2022/06/19 08:37:01;;;;;;;9.23;2.75;;;14.90;99.90;;;;;;5014016;28;20042;-87
2022/06/19 08:39:27;;;;;;;16.05;2.53;;;14.80;99.90;;;;;;5013031;28;20100;-87
2022/06/19 08:42:02;;;;;;;17.05;2.83;;;14.90;99.90;;;;;;4981017;28;20129;-86
2022/06/19 08:44:36;;;;;;;12.77;2.55;;;15.00;99.90;;;;;;5014419;28;20129;-90
2022/06/19 08:47:30;;;;;;;17.27;3.38;;;15.10;99.90;;;;;;4995460;28;20050;-87
2022/06/19 08:50:07;;;;;;;14.88;2.63;;;15.10;99.90;;;;;;5030629;28;20054;-87
2022/06/19 08:52:52;;;;;;;13.75;2.67;;;15.30;99.90;;;;;;5013926;28;20057;-86
2022/06/19 08:55:36;;;;;;;;;;;15.30;99.90;;;;;;5009584;28;20390;-86
2022/06/19 08:58:37;;;;;;;18.33;3.03;;;15.10;99.90;;;;;;5013958;28;19922;-87
2022/06/19 09:01:30;;;;;;;14.00;3.10;;;15.20;99.90;;;;;;4995863;28;20062;-87
2022/06/19 09:07:39;;;;;;;10.50;2.78;;;15.40;99.90;;;;;;4997410;28;20046;-87
2022/06/19 09:10:07;;;;;;;12.57;2.85;;;15.40;99.90;;;;;;5005206;28;20132;-87
2022/06/19 09:12:36;;;;;;;10.85;2.67;;;15.20;99.90;;;;;;5016788;28;20097;-87
2022/06/19 09:15:11;;;;;;;14.57;2.55;;;15.20;99.90;;;;;;4999884;28;20389;-86
2022/06/19 09:17:46;;;;;;;6.22;2.13;;;15.40;99.90;;;;;;4999805;28;20049;-86
2022/06/19 09:20:25;;;;;;;11.75;3.25;;;15.50;99.90;;;;;;5016131;28;20103;-86
2022/06/19 09:22:59;;;;;;;10.25;2.30;;;15.60;99.90;;;;;;4985003;28;20058;-88
2022/06/19 09:25:30;;;;;;;9.00;2.53;;;15.70;99.90;;;;;;4984389;28;20046;-86
2022/06/19 09:28:01;;;;;;;12.75;2.80;;;15.70;99.90;;;;;;4999233;28;20054;-86
2022/06/19 09:30:31;;;;;;;13.68;3.95;;;15.70;99.90;;;;;;5015767;28;20129;-88
2022/06/19 09:33:03;;;;;;;9.70;2.17;;;15.70;99.90;;;;;;5016575;28;20393;-87
2022/06/19 09:35:41;;;;;;;13.63;2.70;;;15.70;99.90;;;;;;4983421;28;20103;-88
2022/06/19 09:38:11;;;;;;;10.93;2.65;;;15.80;99.90;;;;;;4984273;28;20049;-85
2022/06/19 09:40:41;;;;;;;12.63;3.00;;;15.70;99.90;;;;;;5016694;28;20492;-86
2022/06/19 09:43:26;;;;;;;11.73;2.45;;;15.70;99.90;;;;;;5015665;28;20137;-86
2022/06/19 09:45:54;;;;;;;12.38;2.72;;;15.40;99.90;;;;;;4983339;28;20038;-86
2022/06/19 09:48:41;;;;;;;13.63;3.10;;;15.40;99.90;;;;;;4983645;28;20089;-85
2022/06/19 09:51:37;;;;;;;10.40;3.17;;;15.40;99.90;;;;;;5015339;28;20057;-86
2022/06/19 09:54:17;;;;;;;12.32;3.50;;;15.60;99.90;;;;;;4998736;28;20498;-87
2022/06/19 09:57:09;;;;;;;11.98;3.50;;;16.20;99.90;;;;;;5015959;28;20054;-86
2022/06/19 09:59:46;;;;;;;10.45;2.58;;;16.20;99.90;;;;;;4985479;28;20485;-86
2022/06/19 10:02:33;;;;;;;13.95;3.50;;;16.40;99.90;;;;;;5016903;28;20613;-88
2022/06/19 10:05:02;;;;;;;5.97;1.70;;;16.70;99.90;;;;;;5014930;28;20053;-87
2022/06/19 10:07:32;;;;;;;8.77;2.30;;;17.10;99.90;;;;;;4983039;28;20038;-87
2022/06/19 10:10:04;;;;;;;8.93;2.03;;;17.10;99.90;;;;;;4982773;28;20111;-88
2022/06/19 10:12:37;;;;;;;9.95;1.60;;;17.10;99.90;;;;;;4983718;28;20386;-88
2022/06/19 10:15:12;;;;;;;8.27;2.30;;;17.50;99.90;;;;;;4983114;28;20431;-87
2022/06/19 10:17:56;;;;;;;8.20;2.22;;;17.50;99.90;;;;;;4967302;28;20129;-87
2022/06/19 10:20:33;;;;;;;;;;;17.20;99.90;;;;;;5015773;28;20049;-86
2022/06/19 10:23:04;;;;;;;11.15;2.05;;;17.50;99.90;;;;;;5016437;28;20039;-88
2022/06/19 10:25:58;;;;;;;6.95;1.80;;;17.20;99.90;;;;;;5014950;28;20123;-88
2022/06/19 10:28:30;;;;;;;8.85;2.08;;;17.10;99.90;;;;;;4967605;28;20046;-87
2022/06/19 10:31:20;;;;;;;7.82;1.67;;;17.20;99.90;;;;;;4998456;28;20062;-87
2022/06/19 10:34:11;;;;;;;9.55;1.48;;;17.30;99.90;;;;;;5000558;28;20101;-87
2022/06/19 10:36:39;;;;;;;7.93;1.40;;;17.20;99.90;;;;;;4998018;28;20054;-88
2022/06/19 10:39:19;;;;;;;5.43;1.73;;;17.50;99.90;;;;;;5015126;28;20046;-86
2022/06/19 10:42:23;;;;;;;4.95;1.67;;;17.10;99.90;;;;;;4982051;28;20137;-87
2022/06/19 10:45:26;;;;;;;7.25;1.83;;;17.50;99.90;;;;;;4984083;28;20065;-86
2022/06/19 10:48:10;;;;;;;9.75;1.80;;;17.80;99.90;;;;;;4997968;28;20050;-87
2022/06/19 10:50:42;;;;;;;;;;;18.00;99.90;;;;;;4982666;28;20068;-87
2022/06/19 10:54:01;;;;;;;10.02;2.28;;;18.10;99.90;;;;;;5014945;28;20003;-87
2022/06/19 10:56:30;;;;;;;5.97;1.70;;;18.00;99.90;;;;;;4958717;28;20047;-87
2022/06/19 10:58:56;;;;;;;11.20;2.15;;;17.60;99.90;;;;;;4958380;28;20090;-87
2022/06/19 11:04:14;;;;;;;9.75;1.98;;;17.40;99.90;;;;;;5017115;28;20101;-87
2022/06/19 11:06:50;;;;;;;7.72;1.90;;;17.50;99.90;;;;;;4982426;28;20431;-88
2022/06/19 11:09:29;;;;;;;7.45;1.80;;;17.30;99.90;;;;;;5014741;28;20045;-87
2022/06/19 11:12:02;;;;;;;6.28;1.50;;;17.10;99.90;;;;;;5015282;28;20050;-86
2022/06/19 11:14:34;;;;;;;6.75;1.60;;;17.00;99.90;;;;;;4983491;28;20445;-88
2022/06/19 11:17:07;;;;;;;5.53;1.55;;;17.10;99.90;;;;;;4981331;28;20486;-87
2022/06/19 11:19:40;;;;;;;5.38;1.52;;;17.00;99.90;;;;;;4965408;28;20062;-86
2022/06/19 11:22:24;;;;;;;3.50;1.30;;;16.90;99.90;;;;;;5014817;28;20107;-87
2022/06/19 11:24:49;;;;;;;6.30;1.30;;;17.10;99.90;;;;;;4997727;28;20064;-87
2022/06/19 11:27:20;;;;;;;4.18;1.20;;;16.90;99.90;;;;;;5013448;28;20136;-86
2022/06/19 11:29:48;;;;;;;6.35;1.48;;;16.90;99.90;;;;;;4980373;28;20057;-87
2022/06/19 11:32:17;;;;;;;5.30;1.67;;;17.00;99.90;;;;;;5014168;28;20057;-87
2022/06/19 11:34:53;;;;;;;3.60;1.38;;;16.60;99.90;;;;;;5013477;28;20081;-87
2022/06/19 11:37:23;;;;;;;5.82;1.48;;;16.50;99.90;;;;;;4983400;28;20052;-87
2022/06/19 11:39:52;;;;;;;5.43;1.40;;;16.40;99.90;;;;;;4981348;28;20374;-87
2022/06/19 11:42:38;;;;;;;6.20;1.45;;;16.40;99.90;;;;;;5013666;28;20046;-87
2022/06/19 11:45:13;;;;;;;5.00;1.20;;;16.40;99.90;;;;;;5015196;28;20132;-86
2022/06/19 11:47:46;;;;;;;5.97;1.30;;;16.40;99.90;;;;;;4997712;28;20129;-86
2022/06/19 11:50:19;;;;;;;3.13;0.95;;;16.50;99.90;;;;;;5014933;28;20053;-87
2022/06/19 11:52:53;;;;;;;6.43;1.48;;;16.40;99.90;;;;;;4997690;28;20049;-88
2022/06/19 11:55:30;;;;;;;3.95;1.10;;;16.40;99.90;;;;;;5014506;28;20060;-88
2022/06/19 11:58:19;;;;;;;2.33;1.00;;;16.50;99.90;;;;;;4965207;28;20112;-87
2022/06/19 12:00:45;;;;;;;3.25;1.10;;;16.40;99.90;;;;;;5016194;28;20045;-88
2022/06/19 12:03:49;;;;;;;5.00;1.48;;;16.40;99.90;;;;;;4981678;28;20049;-87
2022/06/19 12:06:17;;;;;;;2.42;1.17;;;16.50;99.90;;;;;;4958521;28;20462;-87
2022/06/19 12:08:58;;;;;;;5.25;1.15;;;16.40;99.90;;;;;;4993777;28;20097;-87
2022/06/19 12:12:07;;;;;;;2.70;1.10;;;16.70;99.90;;;;;;5007697;28;20072;-87
2022/06/19 12:14:35;;;;;;;6.75;1.48;;;17.00;99.90;;;;;;5007569;28;20533;-86
2022/06/19 12:17:33;;;;;;;5.05;1.20;;;17.00;99.90;;;;;;4996374;28;20092;-89
2022/06/19 12:20:05;;;;;;;2.28;1.00;;;17.10;99.90;;;;;;4995823;28;20046;-87
2022/06/19 12:22:51;;;;;;;4.07;1.17;;;17.30;99.90;;;;;;5011761;28;20077;-87
2022/06/19 12:25:28;;;;;;;5.30;1.25;;;17.20;99.90;;;;;;5030871;28;20049;-88
2022/06/19 12:28:04;;;;;;;2.90;0.82;;;16.90;99.90;;;;;;5011537;28;20141;-87
2022/06/19 12:30:33;;;;;;;3.35;1.23;;;17.10;99.90;;;;;;5032427;28;20445;-87
2022/06/19 12:32:59;;;;;;;5.07;0.90;;;16.90;99.90;;;;;;4981810;28;20046;-87
2022/06/19 12:35:34;;;;;;;3.40;1.33;;;17.00;99.90;;;;;;4998212;28;20513;-87
2022/06/19 12:38:00;;;;;;;2.10;0.90;;;17.10;99.90;;;;;;5029929;28;20050;-87
2022/06/19 12:40:27;;;;;;;3.97;0.90;;;17.20;99.90;;;;;;5010223;28;20064;-87
2022/06/19 12:42:59;;;;;;;3.58;0.80;;;17.80;99.90;;;;;;4994216;28;20417;-86
2022/06/19 12:45:52;;;;;;;1.88;0.80;;;18.00;99.90;;;;;;5012905;28;20046;-86
2022/06/19 12:48:23;;;;;;;4.07;1.02;;;18.10;99.90;;;;;;5033309;28;20041;-86
2022/06/19 12:51:03;;;;;;;1.77;0.93;;;18.10;99.90;;;;;;5012850;28;20046;-87
2022/06/19 12:53:38;;;;;;;3.15;1.02;;;18.10;99.90;;;;;;4997737;28;20054;-87
2022/06/19 12:56:17;;;;;;;3.55;1.23;;;17.90;99.90;;;;;;4999267;28;20053;-87
2022/06/19 12:58:57;;;;;;;3.00;1.33;;;17.40;99.90;;;;;;5030159;28;20444;-91
2022/06/19 13:01:43;;;;;;;3.92;1.20;;;17.10;99.90;;;;;;5007260;28;20094;-92
2022/06/19 13:04:12;;;;;;;2.45;1.30;;;17.00;99.90;;;;;;4989882;28;20061;-89
2022/06/19 13:07:00;;;;;;;6.45;1.60;;;17.00;99.90;;;;;;5005748;28;20105;-87
2022/06/19 13:09:41;;;;;;;6.45;1.40;;;16.60;99.90;;;;;;5022934;28;20128;-88
2022/06/19 13:12:16;;;;;;;3.10;1.35;;;16.40;99.90;;;;;;4987049;28;20049;-89